Time;durP1;ratioP1;P1;durP2;ratioP2;P2;SDS_P1;SDS_P2;PMS_P1;PMS_P2;Temp;Humidity;BMP_temperature;BMP_pressure;BME280_temperature;BME280_humidity;BME280_pressure;Samples;Min_cycle;Max_cycle;Signal;HPM_P1;HPM_P2
2022/10/21 00:02:14;;;;;;;31.00;23.75;;;;;;;13.30;100.00;100733.97;5043768;28;20303;-66
2022/10/21 00:04:39;;;;;;;34.47;23.70;;;;;;;13.29;100.00;100727.63;5045266;28;20028;-66
2022/10/21 00:07:04;;;;;;;33.38;23.83;;;;;;;13.30;100.00;100722.94;5043449;28;20112;-66
2022/10/21 00:09:30;;;;;;;33.28;23.52;;;;;;;13.32;100.00;100729.84;5043908;28;20400;-66
2022/10/21 00:11:55;;;;;;;31.65;23.55;;;;;;;13.30;100.00;100718.25;5044139;28;20078;-66
2022/10/21 00:14:20;;;;;;;34.65;23.40;;;;;;;13.30;100.00;100715.50;5043186;28;20392;-66
2022/10/21 00:16:45;;;;;;;31.70;22.00;;;;;;;13.29;100.00;100716.59;5043180;28;20476;-66
2022/10/21 00:19:11;;;;;;;32.27;23.37;;;;;;;13.30;100.00;100717.41;5042769;28;20029;-66
2022/10/21 00:21:36;;;;;;;30.23;22.48;;;;;;;13.30;100.00;100725.69;5042749;28;20283;-66
2022/10/21 00:24:02;;;;;;;36.38;24.00;;;;;;;13.29;100.00;100724.88;5044973;28;20445;-66
2022/10/21 00:26:27;;;;;;;32.42;23.65;;;;;;;13.29;100.00;100713.00;5043845;28;20482;-66
2022/10/21 00:28:55;;;;;;;33.85;22.98;;;;;;;13.26;100.00;100717.06;5043824;28;20558;-66
2022/10/21 00:31:22;;;;;;;33.78;24.42;;;;;;;13.27;100.00;100709.63;5028652;28;20507;-66
2022/10/21 00:33:47;;;;;;;31.75;22.83;;;;;;;13.22;100.00;100702.13;5044344;28;20021;-66
2022/10/21 00:36:15;;;;;;;31.08;22.35;;;;;;;13.16;100.00;100709.44;5043321;28;20025;-66
2022/10/21 00:38:43;;;;;;;35.67;23.67;;;;;;;13.13;100.00;100700.84;5045060;28;20032;-66
2022/10/21 00:41:09;;;;;;;31.35;22.73;;;;;;;13.08;100.00;100704.38;5043683;28;20044;-66
2022/10/21 00:44:11;;;;;;;30.40;21.17;;;;;;;13.05;100.00;100704.03;5033119;28;20086;-66
2022/10/21 00:46:42;;;;;;;31.95;23.58;;;;;;;13.03;100.00;100706.19;5022677;28;20025;-66
2022/10/21 00:49:25;;;;;;;30.58;22.33;;;;;;;13.04;100.00;100713.38;5030260;28;20029;-66
2022/10/21 00:51:55;;;;;;;30.90;23.38;;;;;;;13.02;100.00;100713.63;5038145;28;20480;-66
2022/10/21 00:54:22;;;;;;;34.97;23.33;;;;;;;12.99;100.00;100712.22;5045069;28;20021;-66
2022/10/21 00:56:49;;;;;;;33.80;23.58;;;;;;;13.05;100.00;100712.28;5044131;28;20060;-66
2022/10/21 00:59:15;;;;;;;34.00;24.92;;;;;;;13.04;100.00;100707.88;5042022;28;20028;-66
2022/10/21 01:01:41;;;;;;;32.63;23.58;;;;;;;13.05;100.00;100707.63;5034193;28;20083;-66
2022/10/21 01:04:06;;;;;;;36.05;24.75;;;;;;;13.06;100.00;100691.91;5026333;28;20053;-66
2022/10/21 01:06:35;;;;;;;33.15;22.80;;;;;;;13.05;100.00;100696.59;5033970;28;20163;-66
2022/10/21 01:09:00;;;;;;;35.40;24.00;;;;;;;13.08;100.00;100689.75;5044666;28;20106;-66
2022/10/21 01:11:28;;;;;;;37.10;24.98;;;;;;;13.07;100.00;100688.06;5044800;28;20495;-66
2022/10/21 01:16:35;;;;;;;35.05;23.10;;;;;;;13.05;100.00;100682.81;5017307;28;19928;-66
2022/10/21 01:19:22;;;;;;;34.22;24.50;;;;;;;13.01;100.00;100675.28;5025450;28;20045;-66
2022/10/21 01:22:05;;;;;;;34.38;24.45;;;;;;;12.96;100.00;100674.09;5018427;28;20068;-66
2022/10/21 01:24:52;;;;;;;33.45;23.48;;;;;;;12.94;100.00;100669.94;5020558;28;20033;-66
2022/10/21 01:27:24;;;;;;;34.42;24.02;;;;;;;12.92;100.00;100663.81;5014272;28;20490;-66
2022/10/21 01:30:08;;;;;;;32.55;23.17;;;;;;;12.89;100.00;100667.09;5024793;28;20536;-66
2022/10/21 01:32:45;;;;;;;34.42;23.38;;;;;;;12.84;100.00;100651.31;5026785;28;20056;-66
2022/10/21 01:35:22;;;;;;;37.08;23.30;;;;;;;12.83;100.00;100651.56;5026806;28;20144;-66
2022/10/21 01:37:55;;;;;;;39.65;23.20;;;;;;;12.80;100.00;100647.38;5028755;28;20623;-66
2022/10/21 01:40:28;;;;;;;34.15;24.02;;;;;;;12.73;100.00;100646.72;5028976;28;20061;-66
2022/10/21 01:42:57;;;;;;;33.03;23.77;;;;;;;12.74;100.00;100645.63;5027914;28;20071;-66
2022/10/21 01:45:45;;;;;;;35.42;23.00;;;;;;;12.72;100.00;100645.91;5028448;28;20064;-66
2022/10/21 01:48:17;;;;;;;31.50;23.40;;;;;;;12.71;100.00;100633.16;5027794;28;20059;-66
2022/10/21 01:50:55;;;;;;;34.63;22.92;;;;;;;12.66;100.00;100632.25;5028317;28;20040;-66
2022/10/21 01:53:25;;;;;;;31.80;22.88;;;;;;;12.61;100.00;100626.66;5023091;28;20246;-66
2022/10/21 01:55:52;;;;;;;34.42;23.33;;;;;;;12.58;100.00;100624.44;5024421;28;20376;-66
2022/10/21 01:58:23;;;;;;;33.78;23.90;;;;;;;12.59;100.00;100615.06;5028210;28;20033;-66
2022/10/21 02:00:51;;;;;;;30.60;23.20;;;;;;;12.57;100.00;100618.09;5027476;28;20045;-66
2022/10/21 02:03:22;;;;;;;33.40;22.55;;;;;;;12.55;100.00;100613.88;5027179;28;20043;-66
2022/10/21 02:05:47;;;;;;;32.78;23.27;;;;;;;12.52;100.00;100612.47;5028661;28;20059;-66
2022/10/21 02:08:13;;;;;;;35.85;23.17;;;;;;;12.51;100.00;100609.97;5028476;28;20030;-66
2022/10/21 02:10:42;;;;;;;37.58;24.05;;;;;;;12.50;100.00;100613.81;5028813;28;20029;-66
2022/10/21 02:13:12;;;;;;;37.97;25.35;;;;;;;12.53;100.00;100616.91;5026978;28;20117;-66
2022/10/21 02:15:39;;;;;;;38.47;23.33;;;;;;;12.49;100.00;100612.13;5028333;28;20045;-66
2022/10/21 02:18:16;;;;;;;36.50;23.07;;;;;;;12.48;100.00;100604.97;5027031;28;20033;-66
2022/10/21 02:20:43;;;;;;;33.20;23.15;;;;;;;12.44;100.00;100605.44;5008895;28;20105;-66
2022/10/21 02:23:14;;;;;;;34.63;22.73;;;;;;;12.42;100.00;100604.88;5021205;28;20111;-66
2022/10/21 02:25:43;;;;;;;33.97;22.70;;;;;;;12.41;100.00;100599.59;5027703;28;20029;-66
2022/10/21 02:28:10;;;;;;;35.80;23.73;;;;;;;12.35;100.00;100593.16;5026862;28;20984;-66
2022/10/21 02:31:03;;;;;;;36.88;24.27;;;;;;;12.33;100.00;100589.00;5027357;28;20025;-66
2022/10/21 02:33:36;;;;;;;37.28;23.20;;;;;;;12.30;100.00;100590.31;5006413;28;20044;-66
2022/10/21 02:36:33;;;;;;;32.10;22.35;;;;;;;12.27;100.00;100595.50;5027387;28;20030;-66
2022/10/21 02:39:06;;;;;;;34.65;22.65;;;;;;;12.20;100.00;100596.47;5008443;28;20092;-66
2022/10/21 02:41:33;;;;;;;35.90;23.92;;;;;;;12.23;100.00;100605.34;5014581;28;20383;-66
2022/10/21 02:44:00;;;;;;;31.83;21.30;;;;;;;12.17;100.00;100599.75;5025502;28;20025;-66
2022/10/21 02:46:35;;;;;;;30.30;21.42;;;;;;;12.19;100.00;100599.50;5024062;28;20049;-66
2022/10/21 02:49:00;;;;;;;34.03;23.08;;;;;;;12.18;100.00;100600.59;5022719;28;20029;-66
2022/10/21 02:51:26;;;;;;;35.80;22.58;;;;;;;12.16;100.00;100598.06;5024369;28;20116;-66
2022/10/21 02:53:51;;;;;;;36.58;22.80;;;;;;;12.16;100.00;100602.72;5024158;28;20053;-67
2022/10/21 02:56:16;;;;;;;32.20;22.80;;;;;;;12.17;100.00;100598.91;5024260;28;20033;-66
2022/10/21 02:58:41;;;;;;;36.78;22.00;;;;;;;12.16;100.00;100587.03;5026023;28;20280;-66
2022/10/21 03:01:07;;;;;;;32.38;23.25;;;;;;;12.16;100.00;100584.28;5023488;28;20288;-66
2022/10/21 03:03:32;;;;;;;30.83;21.48;;;;;;;12.13;100.00;100583.97;5025407;28;20057;-66
2022/10/21 03:05:57;;;;;;;30.52;21.38;;;;;;;12.11;100.00;100578.69;5024511;28;20359;-66
2022/10/21 03:08:23;;;;;;;35.10;21.90;;;;;;;12.08;100.00;100570.13;5020303;28;20365;-66
2022/10/21 03:10:49;;;;;;;28.48;20.85;;;;;;;12.05;100.00;100576.09;5025556;28;20039;-67
2022/10/21 03:13:14;;;;;;;33.83;21.77;;;;;;;12.00;100.00;100581.50;5022116;28;20255;-66
2022/10/21 03:15:40;;;;;;;30.63;20.50;;;;;;;11.99;100.00;100582.59;5025800;28;20060;-66
2022/10/21 03:18:05;;;;;;;31.02;21.75;;;;;;;11.98;100.00;100583.69;5025671;28;20152;-66
2022/10/21 03:20:30;;;;;;;33.80;21.23;;;;;;;11.98;100.00;100572.69;5026101;28;20060;-66
2022/10/21 03:22:55;;;;;;;28.77;21.33;;;;;;;11.98;100.00;100569.94;5024006;28;20033;-66
2022/10/21 03:25:21;;;;;;;30.17;20.60;;;;;;;11.93;100.00;100568.75;5025183;28;20045;-66
2022/10/21 03:27:49;;;;;;;30.10;20.30;;;;;;;11.90;100.00;100579.41;5026247;28;20384;-66
2022/10/21 03:30:14;;;;;;;;;;;;;;;11.95;100.00;100580.31;5025192;28;20033;-66
2022/10/21 03:32:39;;;;;;;32.63;20.23;;;;;;;11.89;100.00;100575.81;5024496;28;19913;-66
2022/10/21 03:35:05;;;;;;;29.67;19.80;;;;;;;11.86;100.00;100575.47;5026012;28;20307;-66
2022/10/21 03:37:30;;;;;;;29.17;19.30;;;;;;;11.86;100.00;100576.31;5025325;28;20498;-66
2022/10/21 03:39:56;;;;;;;29.80;20.77;;;;;;;11.86;100.00;100578.22;5024305;28;20029;-66
2022/10/21 03:42:21;;;;;;;28.38;19.40;;;;;;;11.85;100.00;100579.31;5023357;28;20017;-66
2022/10/21 03:44:46;;;;;;;35.45;16.73;;;;;;;11.78;100.00;100579.44;5025415;28;20029;-66
2022/10/21 03:47:11;;;;;;;28.98;19.90;;;;;;;11.83;100.00;100578.72;5023792;28;20530;-66
2022/10/21 03:49:37;;;;;;;29.65;19.10;;;;;;;11.80;100.00;100570.91;5024484;28;20035;-66
2022/10/21 03:52:02;;;;;;;30.65;19.98;;;;;;;11.79;100.00;100575.59;5021918;28;20021;-66
2022/10/21 03:54:27;;;;;;;26.55;18.98;;;;;;;11.79;100.00;100572.00;5021210;28;20040;-66
2022/10/21 03:56:53;;;;;;;30.75;19.05;;;;;;;11.78;100.00;100564.84;5021697;28;20084;-66
2022/10/21 03:59:18;;;;;;;25.83;17.95;;;;;;;11.73;100.00;100565.56;5021447;28;20087;-66
2022/10/21 04:01:43;;;;;;;28.95;17.33;;;;;;;11.72;100.00;100568.56;5021080;28;20749;-66
2022/10/21 04:04:09;;;;;;;26.98;18.70;;;;;;;11.73;100.00;100565.56;5023969;28;20032;-66
2022/10/21 04:06:34;;;;;;;28.70;17.42;;;;;;;11.68;100.00;100562.72;5020440;28;20033;-66
2022/10/21 04:08:59;;;;;;;26.15;17.25;;;;;;;11.63;100.00;100563.44;5021649;28;20056;-66
2022/10/21 04:11:24;;;;;;;26.48;17.95;;;;;;;11.65;100.00;100572.28;5022507;28;20412;-66
2022/10/21 04:13:50;;;;;;;35.45;18.80;;;;;;;11.68;100.00;100565.47;5020644;28;20044;-67
2022/10/21 04:16:18;;;;;;;28.10;17.15;;;;;;;11.66;100.00;100573.16;5022796;28;20078;-66
2022/10/21 04:18:43;;;;;;;25.05;17.17;;;;;;;11.67;100.00;100567.38;5021658;28;20040;-66
2022/10/21 04:21:09;;;;;;;25.35;17.40;;;;;;;11.67;100.00;100578.38;5021575;28;20033;-66
2022/10/21 04:23:35;;;;;;;26.30;17.38;;;;;;;11.66;100.00;100575.91;5019278;28;20116;-66
2022/10/21 04:26:00;;;;;;;23.67;16.05;;;;;;;11.64;100.00;100573.38;5024097;28;20033;-66
2022/10/21 04:28:26;;;;;;;25.88;16.15;;;;;;;11.63;100.00;100568.94;5024853;28;20687;-66
2022/10/21 04:30:51;;;;;;;25.35;15.98;;;;;;;11.63;100.00;100568.13;5021572;28;20040;-66
2022/10/21 04:33:17;;;;;;;25.42;15.93;;;;;;;11.61;100.00;100568.38;5024876;28;20032;-66
2022/10/21 04:35:42;;;;;;;26.25;15.93;;;;;;;11.59;100.00;100566.94;5025196;28;20056;-66
2022/10/21 04:38:08;;;;;;;19.83;13.93;;;;;;;11.53;100.00;100565.16;5023810;28;20497;-66
2022/10/21 04:40:33;;;;;;;21.40;15.10;;;;;;;11.54;100.00;100566.81;5023222;28;20427;-66
2022/10/21 04:42:58;;;;;;;21.58;14.30;;;;;;;11.47;100.00;100572.47;5022645;28;20411;-66
2022/10/21 04:45:24;;;;;;;24.02;15.88;;;;;;;11.48;100.00;100576.06;5023312;28;20087;-66
2022/10/21 04:47:49;;;;;;;26.55;15.40;;;;;;;11.45;100.00;100569.13;5024067;28;20025;-66
2022/10/21 04:50:14;;;;;;;25.23;15.68;;;;;;;11.46;100.00;100580.97;5023689;28;20483;-66
2022/10/21 04:52:40;;;;;;;21.40;14.00;;;;;;;11.42;100.00;100581.44;5023099;28;20420;-66
2022/10/21 04:55:05;;;;;;;21.27;14.70;;;;;;;11.41;100.00;100578.94;5024496;28;20486;-66
2022/10/21 04:57:30;;;;;;;22.40;14.00;;;;;;;11.38;100.00;100565.69;5022935;28;20494;-66
2022/10/21 04:59:56;;;;;;;20.27;14.38;;;;;;;11.36;100.00;100582.44;5024021;28;20037;-66
2022/10/21 05:02:21;;;;;;;20.02;13.75;;;;;;;11.37;100.00;100578.59;5020728;28;20467;-66
2022/10/21 05:04:47;;;;;;;23.15;13.90;;;;;;;11.38;100.00;100571.19;5026114;28;20033;-66
2022/10/21 05:07:12;;;;;;;21.90;13.88;;;;;;;11.37;100.00;100562.09;5025570;28;20026;-66
2022/10/21 05:09:37;;;;;;;23.03;13.87;;;;;;;11.35;100.00;100572.50;5026692;28;20036;-66
2022/10/21 05:12:03;;;;;;;22.08;14.25;;;;;;;11.39;100.00;100572.84;5025946;28;20300;-66
2022/10/21 05:14:28;;;;;;;22.95;13.60;;;;;;;11.35;100.00;100566.16;5025152;28;20386;-66
2022/10/21 05:16:53;;;;;;;21.05;13.75;;;;;;;11.34;100.00;100565.31;5027051;28;20033;-66
2022/10/21 05:19:18;;;;;;;21.90;13.68;;;;;;;11.33;100.00;100571.06;5026456;28;20025;-66
2022/10/21 05:21:45;;;;;;;24.00;13.63;;;;;;;11.32;100.00;100575.72;5028687;28;20127;-66
2022/10/21 05:24:12;;;;;;;21.17;13.18;;;;;;;11.36;100.00;100568.69;5027093;28;20021;-66
2022/10/21 05:26:37;;;;;;;19.17;13.23;;;;;;;11.34;100.00;100570.81;5026751;28;20395;-66
2022/10/21 05:29:02;;;;;;;23.42;13.15;;;;;;;11.36;100.00;100565.94;5026379;28;20037;-65
2022/10/21 05:31:28;;;;;;;21.40;13.43;;;;;;;11.37;100.00;100559.34;5025931;28;20030;-66
2022/10/21 05:33:53;;;;;;;19.10;13.13;;;;;;;11.38;100.00;100554.69;5027980;28;20034;-66
2022/10/21 05:36:18;;;;;;;19.48;13.35;;;;;;;11.33;100.00;100547.16;5026683;28;20029;-66
2022/10/21 05:38:43;;;;;;;20.75;12.00;;;;;;;11.34;100.00;100542.50;5025635;28;20038;-66
2022/10/21 05:41:09;;;;;;;20.42;12.15;;;;;;;11.28;100.00;100549.81;5026512;28;20041;-66
2022/10/21 05:43:36;;;;;;;22.65;12.45;;;;;;;11.24;100.00;100545.84;5027010;28;20483;-65
2022/10/21 05:46:02;;;;;;;18.77;11.55;;;;;;;11.19;100.00;100540.25;5025415;28;20486;-66
2022/10/21 05:48:28;;;;;;;22.90;11.35;;;;;;;11.12;100.00;100529.41;5026451;28;20065;-66
2022/10/21 05:50:54;;;;;;;17.42;10.95;;;;;;;11.06;100.00;100529.53;5025854;28;20021;-66
2022/10/21 05:53:23;;;;;;;18.77;11.77;;;;;;;11.02;100.00;100534.69;5027598;28;20021;-66
2022/10/21 05:56:03;;;;;;;19.75;11.80;;;;;;;11.02;100.00;100531.94;5026762;28;20030;-67
2022/10/21 05:58:29;;;;;;;15.75;11.07;;;;;;;10.99;100.00;100529.66;5025385;28;20029;-65
2022/10/21 06:00:55;;;;;;;16.35;10.65;;;;;;;10.96;100.00;100523.81;5025038;28;20017;-66
2022/10/21 06:03:28;;;;;;;16.83;11.43;;;;;;;10.99;100.00;100520.56;5026726;28;20076;-66
2022/10/21 06:06:02;;;;;;;17.00;11.23;;;;;;;10.97;100.00;100520.81;5026229;28;20055;-66
2022/10/21 06:08:29;;;;;;;15.05;10.85;;;;;;;10.95;100.00;100530.38;5026454;28;20249;-66
2022/10/21 06:11:02;;;;;;;19.88;11.60;;;;;;;10.96;100.00;100521.91;5026809;28;20451;-65
2022/10/21 06:13:27;;;;;;;17.52;11.00;;;;;;;10.98;100.00;100530.72;5026549;28;20036;-66
2022/10/21 06:15:52;;;;;;;19.58;13.13;;;;;;;11.02;100.00;100525.59;5024067;28;20042;-66
2022/10/21 06:18:17;;;;;;;19.67;12.50;;;;;;;11.00;100.00;100520.34;5026172;28;20033;-66
2022/10/21 06:20:43;;;;;;;21.73;12.65;;;;;;;11.04;100.00;100528.94;5027418;28;20032;-66
2022/10/21 06:23:11;;;;;;;16.73;11.80;;;;;;;11.03;100.00;100524.50;5026644;28;20038;-66
2022/10/21 06:25:36;;;;;;;17.63;12.25;;;;;;;11.04;100.00;100520.69;5026130;28;20048;-66
2022/10/21 06:28:01;;;;;;;20.17;11.80;;;;;;;11.03;100.00;100530.00;5024542;28;20128;-66
2022/10/21 06:30:27;;;;;;;16.75;11.90;;;;;;;11.05;100.00;100530.59;5025897;28;20483;-66
2022/10/21 06:32:52;;;;;;;16.85;12.23;;;;;;;11.06;100.00;100532.28;5023795;28;20191;-66
2022/10/21 06:35:17;;;;;;;17.95;12.10;;;;;;;11.08;100.00;100525.47;5026694;28;20400;-66
2022/10/21 06:37:42;;;;;;;19.02;12.60;;;;;;;11.08;100.00;100535.63;5026778;28;20029;-65
2022/10/21 06:40:08;;;;;;;21.08;12.38;;;;;;;11.11;100.00;100535.97;5024036;28;20255;-66
2022/10/21 06:42:33;;;;;;;20.30;12.30;;;;;;;11.15;100.00;100533.56;5024204;28;20037;-66
2022/10/21 06:44:58;;;;;;;20.55;11.68;;;;;;;11.18;100.00;100530.34;5026058;28;20030;-66
2022/10/21 06:47:24;;;;;;;17.48;12.60;;;;;;;11.19;100.00;100537.50;5024495;28;20038;-66
2022/10/21 06:49:49;;;;;;;18.70;12.07;;;;;;;11.18;100.00;100544.91;5025906;28;20434;-66
2022/10/21 06:52:14;;;;;;;19.65;12.35;;;;;;;11.21;100.00;100554.59;5026099;28;20033;-66
2022/10/21 06:54:39;;;;;;;17.40;11.80;;;;;;;11.24;100.00;100561.53;5023419;28;20084;-66
2022/10/21 06:57:05;;;;;;;19.88;12.02;;;;;;;11.26;100.00;100573.97;5026197;28;20381;-66
2022/10/21 06:59:30;;;;;;;20.42;12.57;;;;;;;11.32;100.00;100572.16;5026217;28;20029;-66
2022/10/21 07:01:55;;;;;;;20.33;12.98;;;;;;;11.34;100.00;100579.06;5023143;28;20032;-65
2022/10/21 07:04:21;;;;;;;19.73;13.45;;;;;;;11.39;100.00;100584.69;5024323;28;20044;-66
2022/10/21 07:06:47;;;;;;;21.98;13.52;;;;;;;11.43;100.00;100588.63;5025827;28;20202;-66
2022/10/21 07:09:13;;;;;;;19.05;13.07;;;;;;;11.51;100.00;100597.59;5024744;28;20079;-66
2022/10/21 07:11:38;;;;;;;21.05;13.80;;;;;;;11.58;100.00;100587.28;5026830;28;20072;-66
2022/10/21 07:14:03;;;;;;;21.25;13.50;;;;;;;11.65;100.00;100593.44;5023937;28;20029;-66
2022/10/21 07:16:32;;;;;;;19.95;13.68;;;;;;;11.74;100.00;100599.41;5022964;28;20083;-66
2022/10/21 07:18:57;;;;;;;;;;;;;;;11.83;100.00;100600.72;5024697;28;20017;-66
2022/10/21 07:21:25;;;;;;;18.00;12.00;;;;;;;11.89;100.00;100602.50;5022589;28;20235;-66
2022/10/21 07:23:51;;;;;;;20.88;11.60;;;;;;;11.95;100.00;100602.34;5024754;28;20083;-67
2022/10/21 07:26:18;;;;;;;22.60;11.75;;;;;;;12.02;100.00;100610.47;5022981;28;20721;-66
2022/10/21 07:28:46;;;;;;;19.17;11.50;;;;;;;12.08;100.00;100605.91;5025341;28;20376;-66
2022/10/21 07:31:13;;;;;;;14.43;10.50;;;;;;;12.14;100.00;100599.41;5025497;28;20030;-66
2022/10/21 07:33:38;;;;;;;18.98;12.05;;;;;;;12.19;100.00;100616.00;5022965;28;20064;-66
2022/10/21 07:36:17;;;;;;;18.10;12.00;;;;;;;12.26;100.00;100613.94;5025745;28;20451;-66
2022/10/21 07:38:45;;;;;;;18.85;11.93;;;;;;;12.33;100.00;100611.88;5025223;28;20145;-66
2022/10/21 07:41:32;;;;;;;19.40;12.80;;;;;;;12.42;100.00;100615.91;5040965;28;20427;-66
2022/10/21 07:43:58;;;;;;;17.92;11.95;;;;;;;12.50;100.00;100619.31;5025425;28;20061;-66
2022/10/21 07:46:24;;;;;;;18.83;12.80;;;;;;;12.56;100.00;100621.06;5024159;28;20073;-66
2022/10/21 07:48:49;;;;;;;21.30;12.63;;;;;;;12.62;100.00;100620.06;5023986;28;20033;-67
2022/10/21 07:51:18;;;;;;;20.00;13.23;;;;;;;12.69;100.00;100618.00;5026022;28;20025;-66
2022/10/21 07:53:44;;;;;;;18.77;13.70;;;;;;;12.75;100.00;100622.50;5020395;28;20034;-66
2022/10/21 07:56:15;;;;;;;20.55;14.23;;;;;;;12.77;100.00;100617.56;5024270;28;20105;-66
2022/10/21 07:58:41;;;;;;;20.58;14.55;;;;;;;12.84;100.00;100622.91;5025298;28;20079;-66
2022/10/21 08:01:09;;;;;;;22.45;13.57;;;;;;;12.89;100.00;100626.59;5024762;28;20033;-66
2022/10/21 08:03:35;;;;;;;21.20;14.07;;;;;;;12.93;100.00;100627.75;5020383;28;20372;-66
2022/10/21 08:06:02;;;;;;;19.88;14.30;;;;;;;12.96;100.00;100621.72;5024952;28;20449;-66
2022/10/21 08:08:27;;;;;;;21.92;13.90;;;;;;;13.01;100.00;100618.22;5024940;28;20029;-66
2022/10/21 08:10:54;;;;;;;24.33;14.38;;;;;;;13.08;100.00;100620.81;5024631;28;20383;-66
2022/10/21 08:13:20;;;;;;;21.90;13.63;;;;;;;13.12;100.00;100624.72;5024219;28;20488;-66
2022/10/21 08:15:47;;;;;;;19.13;14.13;;;;;;;13.13;100.00;100623.66;5022947;28;20099;-66
2022/10/21 08:18:13;;;;;;;22.52;13.68;;;;;;;13.15;100.00;100618.69;5026920;28;20036;-66
2022/10/21 08:20:40;;;;;;;18.00;13.13;;;;;;;13.14;100.00;100615.13;5025470;28;20030;-65
2022/10/21 08:23:06;;;;;;;21.90;14.23;;;;;;;13.12;100.00;100617.28;5023794;28;20540;-66
2022/10/21 08:25:32;;;;;;;19.33;14.52;;;;;;;13.10;100.00;100615.88;5023542;28;20025;-66
2022/10/21 08:27:57;;;;;;;24.90;14.27;;;;;;;13.09;100.00;100611.44;5023311;28;20049;-66
2022/10/21 08:30:24;;;;;;;21.50;15.32;;;;;;;13.06;100.00;100601.75;5023612;28;20300;-66
2022/10/21 08:32:50;;;;;;;22.33;14.93;;;;;;;13.02;100.00;100602.50;5022730;28;20124;-66
2022/10/21 08:35:15;;;;;;;25.17;16.20;;;;;;;13.01;100.00;100615.47;5019963;28;20021;-66
2022/10/21 08:37:40;;;;;;;22.42;14.77;;;;;;;13.00;100.00;100613.78;5024649;28;20396;-66
2022/10/21 08:40:06;;;;;;;22.67;15.02;;;;;;;12.99;100.00;100621.22;5024443;28;20121;-66
2022/10/21 08:42:32;;;;;;;25.23;15.77;;;;;;;12.97;100.00;100628.06;5024921;28;20530;-65
2022/10/21 08:45:05;;;;;;;22.25;16.40;;;;;;;12.98;100.00;100627.00;5021524;28;20022;-66
2022/10/21 08:47:46;;;;;;;23.27;15.10;;;;;;;12.98;100.00;100627.84;5024414;28;20391;-66
2022/10/21 08:50:20;;;;;;;21.17;14.30;;;;;;;12.99;100.00;100629.50;5023694;28;20029;-65
2022/10/21 08:52:49;;;;;;;21.25;13.90;;;;;;;13.02;100.00;100632.84;5022275;28;20299;-65
2022/10/21 08:55:20;;;;;;;19.10;12.63;;;;;;;13.07;100.00;100646.69;5024170;28;20079;-68
2022/10/21 08:57:47;;;;;;;21.65;14.02;;;;;;;13.09;100.00;100661.09;5023079;28;20030;-64
2022/10/21 09:00:16;;;;;;;43.50;16.07;;;;;;;13.13;100.00;100656.75;5021490;28;20026;-65
2022/10/21 09:02:59;;;;;;;22.58;13.05;;;;;;;13.16;100.00;100643.25;5021984;28;20087;-65
2022/10/21 09:05:34;;;;;;;27.73;14.70;;;;;;;13.22;100.00;100642.28;5022353;28;20043;-65
2022/10/21 09:08:23;;;;;;;25.40;13.65;;;;;;;13.29;100.00;100633.84;5025796;28;20114;-65
2022/10/21 09:11:13;;;;;;;17.38;11.40;;;;;;;13.36;100.00;100644.69;5026055;28;20041;-66
2022/10/21 09:13:46;;;;;;;21.55;12.90;;;;;;;13.43;100.00;100651.72;5024397;28;20026;-65
2022/10/21 09:16:23;;;;;;;20.50;11.63;;;;;;;13.49;100.00;100645.16;5022653;28;20076;-65
2022/10/21 09:18:54;;;;;;;18.23;11.63;;;;;;;13.55;100.00;100657.09;5024002;28;20021;-66
2022/10/21 09:21:31;;;;;;;20.98;11.52;;;;;;;13.60;100.00;100645.31;5024569;28;20018;-66
2022/10/21 09:24:11;;;;;;;17.57;11.23;;;;;;;13.66;100.00;100650.63;5023188;28;20257;-65
2022/10/21 09:26:40;;;;;;;18.17;12.35;;;;;;;13.71;100.00;100647.09;5024222;28;20087;-65
2022/10/21 09:29:32;;;;;;;20.88;11.20;;;;;;;13.74;100.00;100638.31;5023851;28;20476;-65
2022/10/21 09:32:03;;;;;;;20.40;11.02;;;;;;;13.77;100.00;100630.34;5023379;28;20391;-65
2022/10/21 09:34:52;;;;;;;15.77;8.95;;;;;;;13.85;100.00;100637.34;5024177;28;20245;-65
2022/10/21 09:37:26;;;;;;;20.30;10.20;;;;;;;13.89;100.00;100637.63;5015633;28;20400;-65
2022/10/21 09:39:59;;;;;;;13.18;7.03;;;;;;;13.98;100.00;100636.09;5023796;28;20022;-64
2022/10/21 09:42:24;;;;;;;14.10;6.97;;;;;;;14.06;100.00;100627.38;5024005;28;20568;-65
2022/10/21 09:44:50;;;;;;;11.45;6.35;;;;;;;14.15;100.00;100630.50;5022239;28;20116;-65
2022/10/21 09:47:21;;;;;;;11.55;5.82;;;;;;;14.24;100.00;100618.72;5024876;28;20430;-65
2022/10/21 09:49:51;;;;;;;11.02;5.38;;;;;;;14.35;100.00;100613.31;5024535;28;20463;-65
2022/10/21 09:52:20;;;;;;;11.63;5.85;;;;;;;14.42;100.00;100611.16;5025523;28;20072;-65
2022/10/21 09:54:46;;;;;;;11.57;5.35;;;;;;;14.48;100.00;100613.72;5027617;28;20017;-65
2022/10/21 09:57:22;;;;;;;21.67;6.68;;;;;;;14.53;100.00;100615.69;5026910;28;20048;-65
2022/10/21 09:59:59;;;;;;;14.32;6.28;;;;;;;14.61;100.00;100619.94;5026836;28;20022;-65
2022/10/21 10:02:32;;;;;;;13.60;6.13;;;;;;;14.69;100.00;100617.50;5027040;28;20025;-65
2022/10/21 10:04:57;;;;;;;12.63;5.65;;;;;;;14.82;100.00;100624.53;5026400;28;20108;-65
2022/10/21 10:07:27;;;;;;;12.75;5.70;;;;;;;14.94;100.00;100627.94;5026443;28;20116;-65
2022/10/21 10:09:52;;;;;;;12.18;5.35;;;;;;;15.01;100.00;100627.72;5027204;28;20032;-65
2022/10/21 10:12:23;;;;;;;12.77;5.60;;;;;;;15.09;100.00;100629.13;5027128;28;20025;-65
2022/10/21 10:14:49;;;;;;;14.27;4.88;;;;;;;15.16;100.00;100630.59;5026178;28;20045;-66
2022/10/21 10:17:22;;;;;;;11.38;4.60;;;;;;;15.25;100.00;100639.19;5027279;28;20351;-64
2022/10/21 10:20:03;;;;;;;8.38;4.75;;;;;;;15.33;100.00;100644.25;5027397;28;20034;-65
2022/10/21 10:22:40;;;;;;;10.30;5.72;;;;;;;15.37;100.00;100648.16;5026227;28;20021;-65
2022/10/21 10:25:34;;;;;;;10.93;5.60;;;;;;;15.41;100.00;100646.53;5026615;28;20022;-65
2022/10/21 10:28:16;;;;;;;12.07;6.30;;;;;;;15.46;100.00;100646.56;5025414;28;20060;-64
2022/10/21 10:30:41;;;;;;;12.00;5.93;;;;;;;15.52;100.00;100647.41;5024292;28;20025;-64
2022/10/21 10:33:29;;;;;;;13.47;6.37;;;;;;;15.67;100.00;100652.22;5026632;28;20047;-64
2022/10/21 10:35:58;;;;;;;13.02;6.55;;;;;;;15.83;100.00;100651.19;5026317;28;20060;-65
2022/10/21 10:38:26;;;;;;;;;;;;;;;16.13;100.00;100661.56;5026490;28;20035;-64
2022/10/21 10:40:51;;;;;;;12.85;6.63;;;;;;;16.54;100.00;100650.56;5026351;28;19912;-64
2022/10/21 10:43:26;;;;;;;16.02;6.55;;;;;;;16.77;100.00;100660.28;5027110;28;20083;-64
2022/10/21 10:46:22;;;;;;;12.65;5.90;;;;;;;16.94;100.00;100660.03;5025531;28;20377;-65
2022/10/21 10:48:50;;;;;;;11.90;6.07;;;;;;;16.95;100.00;100665.31;5024100;28;20033;-64
2022/10/21 10:51:33;;;;;;;10.25;5.47;;;;;;;16.99;100.00;100666.41;5027446;28;20091;-64
2022/10/21 10:54:18;;;;;;;12.25;6.28;;;;;;;17.02;100.00;100667.78;5025685;28;20163;-65
2022/10/21 10:57:01;;;;;;;13.60;6.70;;;;;;;17.05;100.00;100661.69;5026661;28;20064;-64
2022/10/21 10:59:32;;;;;;;14.50;6.45;;;;;;;17.11;100.00;100666.97;5025779;28;20476;-65
2022/10/21 11:02:06;;;;;;;17.52;6.90;;;;;;;17.29;100.00;100659.19;5025680;28;20175;-65
2022/10/21 11:04:36;;;;;;;13.38;7.10;;;;;;;17.53;100.00;100654.66;5026150;28;20040;-64
2022/10/21 11:07:12;;;;;;;13.43;6.70;;;;;;;17.99;100.00;100656.47;5026162;28;20104;-64
2022/10/21 11:09:38;;;;;;;13.63;6.35;;;;;;;18.57;95.90;100645.59;5025456;28;20852;-64
2022/10/21 11:12:14;;;;;;;13.93;6.05;;;;;;;18.79;95.48;100640.44;5025320;28;20021;-65
2022/10/21 11:14:39;;;;;;;11.43;5.28;;;;;;;18.80;90.03;100641.25;5024924;28;20041;-64
2022/10/21 11:17:11;;;;;;;9.27;5.10;;;;;;;19.15;88.78;100635.38;5025522;28;20033;-64